Terminal Aerodrome Forecast
Issued by NWS

Home | Current Version | Previous Version | Text Only | Print | Product List | Glossary On
Versions: 1 2 3 4 5 6 7 8 9 10 11 12 13 14 15 16 17 18 19 20 21 22 23 24
000
FTUS41 KBUF 251700
TAFIAG
TAF
KIAG 251720Z 2518/2618 35008KT P6SM SKC
     FM252100 02007KT P6SM SKC
     FM260000 VRB03KT P6SM SKC
     FM260800 36004KT P6SM BKN050
     FM261400 35008KT P6SM BKN060=

USA.gov is the U.S. government's official web portal to all federal, state and local government web resources and services.